Terminal Aerodrome Forecast
Issued by NWS Spokane, WA

Home | Current Version | Previous Version | Text Only | Print | Product List | Glossary On
Versions: 1 2 3 4 5 6 7 8 9 10 11 12 13 14 15 16 17 18 19 20 21 22 23 24 25 26 27 28
000
FTUS46 KOTX 300215 AAA
TAFLWS
TAF AMD
KLWS 300215Z 3002/3024 28004KT P6SM SCT120 BKN150
      TEMPO 3002/3004 5SM TSRA BKN080CB
     FM300400 21004KT P6SM VCSH SCT100 BKN150
     FM300800 VRB04KT P6SM -SHRA SCT060 OVC100
     FM301000 28004KT P6SM VCSH SCT100 BKN150
     FM302000 32006KT P6SM SCT100 SCT150=

USA.gov is the U.S. government's official web portal to all federal, state and local government web resources and services.